Time;durP1;ratioP1;P1;durP2;ratioP2;P2;SDS_P1;SDS_P2;PMS_P1;PMS_P2;Temp;Humidity;BMP_temperature;BMP_pressure;BME280_temperature;BME280_humidity;BME280_pressure;Samples;Min_cycle;Max_cycle;Signal;HPM_P1;HPM_P2
2024/01/07 09:22:21;;;;;;;10.37;3.57;;;2.80;99.90;;;;;;3267978;27;20290;-74
2024/01/07 09:24:49;;;;;;;9.00;3.57;;;2.50;99.90;;;;;;4899317;29;20213;-73
2024/01/07 09:27:16;;;;;;;14.10;5.03;;;2.50;99.90;;;;;;4906124;29;20222;-77
2024/01/07 09:29:43;;;;;;;13.13;4.60;;;2.50;99.90;;;;;;4897981;29;20265;-75
2024/01/07 09:32:10;;;;;;;9.83;3.73;;;2.50;99.90;;;;;;4897376;29;20228;-75
2024/01/07 09:34:38;;;;;;;12.03;4.33;;;2.50;99.90;;;;;;4898364;29;20214;-73
2024/01/07 09:37:05;;;;;;;13.63;4.00;;;2.70;99.90;;;;;;4898111;29;20305;-74
2024/01/07 09:39:34;;;;;;;11.53;4.23;;;2.60;99.90;;;;;;4891776;29;20210;-73
2024/01/07 09:42:02;;;;;;;9.97;4.27;;;2.70;99.90;;;;;;4897633;29;20210;-72
2024/01/07 09:44:29;;;;;;;12.90;4.40;;;2.50;99.90;;;;;;4897883;29;20249;-73
2024/01/07 09:46:59;;;;;;;8.73;4.07;;;2.60;99.90;;;;;;4898230;29;20202;-71
2024/01/07 09:49:26;;;;;;;9.23;3.50;;;2.70;99.90;;;;;;4897834;29;20226;-74
2024/01/07 09:52:00;;;;;;;12.23;4.20;;;2.80;99.90;;;;;;4898141;29;20206;-71
2024/01/07 09:54:28;;;;;;;10.17;4.30;;;2.90;99.90;;;;;;4898068;29;20214;-73
2024/01/07 09:57:01;;;;;;;9.30;3.97;;;2.90;99.90;;;;;;4899278;29;20297;-78
2024/01/07 09:59:30;;;;;;;10.43;3.70;;;2.70;99.90;;;;;;4898239;29;20231;-70
2024/01/07 10:01:58;;;;;;;9.27;3.80;;;2.70;99.90;;;;;;4898773;29;20225;-76
2024/01/07 10:04:25;;;;;;;9.63;4.27;;;2.60;99.90;;;;;;4898382;29;20305;-74
2024/01/07 10:06:54;;;;;;;9.30;3.40;;;2.80;99.90;;;;;;4898109;29;20202;-72
2024/01/07 10:09:23;;;;;;;8.83;4.27;;;2.80;99.90;;;;;;4898168;29;20309;-70
2024/01/07 10:11:51;;;;;;;8.23;3.00;;;2.80;99.90;;;;;;4898429;29;20225;-72
2024/01/07 10:14:22;;;;;;;8.93;3.83;;;2.50;99.90;;;;;;4898126;29;20323;-71
2024/01/07 10:16:50;;;;;;;11.30;4.90;;;2.40;99.90;;;;;;4899496;29;20210;-68
2024/01/07 10:19:22;;;;;;;10.27;4.23;;;2.60;99.90;;;;;;4901973;29;20241;-71
2024/01/07 10:22:00;;;;;;;14.17;4.83;;;2.60;99.90;;;;;;4897184;29;20238;-71
2024/01/07 10:24:32;;;;;;;11.40;4.77;;;2.70;99.90;;;;;;4896233;29;20210;-71
2024/01/07 10:27:00;;;;;;;10.77;4.17;;;2.80;99.90;;;;;;4895485;29;20241;-71
2024/01/07 10:29:29;;;;;;;8.57;3.63;;;2.60;99.90;;;;;;4897182;29;20222;-71
2024/01/07 10:31:58;;;;;;;12.13;4.20;;;2.70;99.90;;;;;;4894659;29;20222;-71
2024/01/07 10:34:26;;;;;;;9.97;4.00;;;2.60;99.90;;;;;;4896902;29;20329;-70
2024/01/07 10:36:56;;;;;;;8.50;3.27;;;2.70;99.90;;;;;;4897395;29;20213;-71
2024/01/07 10:39:24;;;;;;;9.97;4.33;;;2.50;99.90;;;;;;4897131;29;20229;-71
2024/01/07 10:41:56;;;;;;;9.70;4.53;;;2.30;99.90;;;;;;4897195;29;20206;-71
2024/01/07 10:44:25;;;;;;;12.53;4.43;;;2.40;99.90;;;;;;4897281;29;20211;-70
2024/01/07 10:46:56;;;;;;;10.73;4.87;;;2.50;99.90;;;;;;4896441;29;20210;-70
2024/01/07 10:49:25;;;;;;;9.20;4.33;;;2.50;99.90;;;;;;4896695;29;20301;-71
2024/01/07 10:52:03;;;;;;;10.13;4.40;;;2.60;99.90;;;;;;4896463;29;20237;-72
2024/01/07 10:54:33;;;;;;;8.77;3.83;;;2.60;99.90;;;;;;4894678;29;20241;-71
2024/01/07 10:57:05;;;;;;;13.67;4.07;;;2.60;99.90;;;;;;4896110;29;20233;-71
2024/01/07 10:59:34;;;;;;;8.30;4.07;;;2.50;99.90;;;;;;4897033;29;20217;-71
2024/01/07 11:02:04;;;;;;;8.80;4.00;;;2.40;99.90;;;;;;4897111;29;20285;-72
2024/01/07 11:04:39;;;;;;;6.80;3.60;;;2.40;99.90;;;;;;4897445;29;20218;-72
2024/01/07 11:07:20;;;;;;;8.50;3.17;;;2.40;99.90;;;;;;4894825;29;20229;-72
2024/01/07 11:09:57;;;;;;;12.13;3.80;;;2.40;99.90;;;;;;4897737;29;20221;-70
2024/01/07 11:12:24;;;;;;;7.27;3.50;;;2.60;99.90;;;;;;4897244;29;20202;-70
2024/01/07 11:14:54;;;;;;;8.23;4.17;;;2.40;99.90;;;;;;4898092;29;20218;-73
2024/01/07 11:17:46;;;;;;;7.43;3.47;;;2.40;99.90;;;;;;4900401;29;20228;-72
2024/01/07 11:20:21;;;;;;;7.30;3.30;;;2.30;99.90;;;;;;4877761;29;20765;-70
2024/01/07 11:22:48;;;;;;;6.10;3.20;;;2.40;99.90;;;;;;4885212;29;20222;-71
2024/01/07 11:25:32;;;;;;;7.80;3.23;;;2.30;99.90;;;;;;4897742;29;20233;-71
2024/01/07 11:28:02;;;;;;;6.10;2.83;;;2.40;99.90;;;;;;4897797;29;20249;-71
2024/01/07 11:30:29;;;;;;;7.13;2.63;;;2.40;99.90;;;;;;4897800;29;20210;-71
2024/01/07 11:33:01;;;;;;;9.37;3.27;;;2.40;99.90;;;;;;4898580;29;20598;-71
2024/01/07 11:35:57;;;;;;;10.07;3.37;;;2.30;99.90;;;;;;4899480;29;20249;-70
2024/01/07 11:38:25;;;;;;;9.27;3.73;;;2.30;99.90;;;;;;4900975;29;20282;-71
2024/01/07 11:40:53;;;;;;;8.03;3.10;;;2.40;99.90;;;;;;4900800;29;20263;-71
2024/01/07 11:43:20;;;;;;;8.37;3.00;;;2.50;99.90;;;;;;4900890;29;20215;-72
2024/01/07 11:45:48;;;;;;;9.53;2.90;;;2.70;99.90;;;;;;4901095;29;20616;-70
2024/01/07 11:48:16;;;;;;;7.43;3.37;;;2.60;99.90;;;;;;4900969;29;20634;-70
2024/01/07 11:50:43;;;;;;;7.33;3.37;;;2.50;99.90;;;;;;4900382;29;20659;-74
2024/01/07 11:53:13;;;;;;;8.90;3.70;;;2.40;99.90;;;;;;4899746;29;20601;-74
2024/01/07 11:55:40;;;;;;;7.23;3.10;;;2.40;99.90;;;;;;4900429;29;20246;-72
2024/01/07 11:58:07;;;;;;;6.97;3.17;;;2.50;99.90;;;;;;4900071;29;20586;-72
2024/01/07 12:00:35;;;;;;;8.37;3.13;;;2.60;99.90;;;;;;4899920;29;20269;-71
2024/01/07 12:03:02;;;;;;;12.43;3.97;;;2.40;99.90;;;;;;4899753;29;20633;-73
2024/01/07 12:05:31;;;;;;;8.63;2.77;;;2.40;99.90;;;;;;4899323;29;20535;-70
2024/01/07 12:07:58;;;;;;;7.90;2.87;;;2.50;99.90;;;;;;4896641;29;20239;-71
2024/01/07 12:10:26;;;;;;;8.97;3.87;;;2.40;99.90;;;;;;4899268;29;20202;-71
2024/01/07 12:12:57;;;;;;;12.33;3.57;;;2.30;99.90;;;;;;4898794;29;20198;-73
2024/01/07 12:15:29;;;;;;;7.10;2.47;;;2.50;99.90;;;;;;4899699;29;20210;-72
2024/01/07 12:17:58;;;;;;;6.07;2.43;;;2.30;99.90;;;;;;4900018;29;20653;-72
2024/01/07 12:20:26;;;;;;;7.90;2.57;;;2.20;99.90;;;;;;4899739;29;20210;-72
2024/01/07 12:23:01;;;;;;;7.53;3.80;;;2.20;99.90;;;;;;4899660;29;20230;-73
2024/01/07 12:25:28;;;;;;;9.20;2.87;;;2.00;99.90;;;;;;4899630;29;20650;-71
2024/01/07 12:27:55;;;;;;;7.23;2.60;;;1.90;99.90;;;;;;4900138;29;20721;-73
2024/01/07 12:30:22;;;;;;;6.97;3.40;;;1.90;99.90;;;;;;4897260;29;20263;-74
2024/01/07 12:32:52;;;;;;;7.33;3.60;;;1.90;99.90;;;;;;4899316;29;20211;-72
2024/01/07 12:35:19;;;;;;;8.33;2.63;;;2.00;99.90;;;;;;4899590;29;20345;-73
2024/01/07 12:37:46;;;;;;;6.90;3.07;;;2.10;99.90;;;;;;4899015;29;20227;-73
2024/01/07 12:40:21;;;;;;;4.17;2.50;;;2.00;99.90;;;;;;4899176;29;20206;-73
2024/01/07 12:42:49;;;;;;;5.80;2.50;;;2.00;99.90;;;;;;4899464;29;20216;-72
2024/01/07 12:45:16;;;;;;;9.27;2.93;;;2.00;99.90;;;;;;4899355;29;20303;-70
2024/01/07 12:47:47;;;;;;;7.17;3.13;;;2.20;99.90;;;;;;4899367;29;20230;-70
2024/01/07 12:50:15;;;;;;;9.10;2.97;;;2.10;99.90;;;;;;4899079;29;20281;-73
2024/01/07 12:52:43;;;;;;;7.27;3.23;;;1.90;99.90;;;;;;4898727;29;20210;-70
2024/01/07 12:55:10;;;;;;;6.87;3.20;;;2.00;99.90;;;;;;4899086;29;20245;-69
2024/01/07 12:57:47;;;;;;;7.97;2.70;;;2.10;99.90;;;;;;4898911;29;20289;-72
2024/01/07 13:00:19;;;;;;;5.70;2.90;;;2.20;99.90;;;;;;4898809;29;20242;-70
2024/01/07 13:02:46;;;;;;;3.87;2.20;;;2.40;99.90;;;;;;4898924;29;20309;-71
2024/01/07 13:05:14;;;;;;;7.77;2.57;;;2.40;99.90;;;;;;4898975;29;20317;-70
2024/01/07 13:07:56;;;;;;;4.97;2.23;;;2.30;99.90;;;;;;4898780;29;20262;-70
2024/01/07 13:10:27;;;;;;;5.07;2.37;;;2.30;99.90;;;;;;4898970;29;20215;-70
2024/01/07 13:12:59;;;;;;;5.97;2.53;;;2.00;99.90;;;;;;4898998;29;20230;-70
2024/01/07 13:15:34;;;;;;;6.13;2.77;;;2.00;99.90;;;;;;4898549;29;20214;-69
2024/01/07 13:18:02;;;;;;;8.13;2.80;;;2.00;99.90;;;;;;4898813;29;20237;-69
2024/01/07 13:20:29;;;;;;;7.80;3.00;;;2.20;99.90;;;;;;4898803;29;20246;-70
2024/01/07 13:23:00;;;;;;;9.03;2.77;;;2.20;99.90;;;;;;4898228;29;20221;-70
2024/01/07 13:25:55;;;;;;;4.87;2.43;;;2.40;99.90;;;;;;4898626;29;20210;-70
2024/01/07 13:28:25;;;;;;;6.10;2.13;;;2.50;99.90;;;;;;4898420;29;20231;-74
2024/01/07 13:30:53;;;;;;;5.93;2.90;;;2.50;99.90;;;;;;4898756;29;20215;-74
2024/01/07 13:33:21;;;;;;;5.97;2.70;;;2.30;99.90;;;;;;4898564;29;20246;-71
2024/01/07 13:35:58;;;;;;;5.00;2.80;;;2.40;99.90;;;;;;4898898;29;20241;-71
2024/01/07 13:38:29;;;;;;;7.13;2.70;;;2.40;99.90;;;;;;4898503;29;20237;-73
2024/01/07 13:41:06;;;;;;;7.37;3.03;;;2.20;99.90;;;;;;4898674;29;20211;-73
2024/01/07 13:43:40;;;;;;;4.30;2.13;;;2.20;99.90;;;;;;4898711;29;20214;-70
2024/01/07 13:46:13;;;;;;;4.97;2.30;;;2.30;99.90;;;;;;4898170;29;20206;-71
2024/01/07 13:48:50;;;;;;;4.70;2.70;;;2.30;99.90;;;;;;4898329;29;20332;-71
2024/01/07 13:51:17;;;;;;;5.33;2.60;;;2.10;99.90;;;;;;4898830;29;20299;-70
2024/01/07 13:53:46;;;;;;;6.50;2.97;;;2.10;99.90;;;;;;4898315;29;20258;-72
2024/01/07 13:56:16;;;;;;;3.70;2.37;;;2.00;99.90;;;;;;4898688;29;20242;-72
2024/01/07 13:58:56;;;;;;;4.30;2.07;;;2.10;99.90;;;;;;4898401;29;20241;-73
2024/01/07 14:01:24;;;;;;;6.97;3.50;;;1.90;99.90;;;;;;4898295;29;20289;-70
2024/01/07 14:03:56;;;;;;;4.70;2.13;;;2.00;99.90;;;;;;4898352;29;20214;-71
2024/01/07 14:06:27;;;;;;;4.30;2.10;;;2.00;99.90;;;;;;4897347;29;20212;-71
2024/01/07 14:08:54;;;;;;;4.13;2.43;;;2.10;99.90;;;;;;4898103;29;20265;-70
2024/01/07 14:11:22;;;;;;;6.20;2.60;;;2.10;99.90;;;;;;4898204;29;20237;-72
2024/01/07 14:13:52;;;;;;;4.40;2.17;;;2.10;99.90;;;;;;4898219;29;20257;-70
2024/01/07 14:16:22;;;;;;;5.00;2.70;;;2.20;99.90;;;;;;4898234;29;20214;-70
2024/01/07 14:18:49;;;;;;;5.30;2.63;;;2.20;99.90;;;;;;4898101;29;20230;-69
2024/01/07 14:21:19;;;;;;;7.23;2.13;;;2.10;99.90;;;;;;4897758;29;20222;-71
2024/01/07 14:23:53;;;;;;;5.47;2.87;;;2.00;99.90;;;;;;4898185;29;20222;-70
2024/01/07 14:26:23;;;;;;;5.47;2.70;;;1.90;99.90;;;;;;4897855;29;20302;-73
2024/01/07 14:28:51;;;;;;;2.97;2.17;;;1.90;99.90;;;;;;4898238;29;20602;-72
2024/01/07 14:31:19;;;;;;;4.63;2.27;;;1.90;99.90;;;;;;4898049;29;20214;-70
2024/01/07 14:33:46;;;;;;;4.63;2.20;;;1.90;99.90;;;;;;4897872;29;20238;-73
2024/01/07 14:36:17;;;;;;;4.43;2.57;;;2.00;99.90;;;;;;4898285;29;20215;-70
2024/01/07 14:38:45;;;;;;;4.27;2.40;;;2.00;99.90;;;;;;4898218;29;20238;-70
2024/01/07 14:41:13;;;;;;;6.43;2.77;;;2.00;99.90;;;;;;4898166;29;20216;-70
2024/01/07 14:43:40;;;;;;;5.67;3.07;;;1.90;99.90;;;;;;4898057;29;20238;-70
2024/01/07 14:46:09;;;;;;;4.07;2.47;;;2.00;99.90;;;;;;4897892;29;20214;-71
2024/01/07 14:48:37;;;;;;;6.07;3.40;;;2.20;99.90;;;;;;4897662;29;20237;-73
2024/01/07 14:51:04;;;;;;;6.50;2.33;;;2.00;99.90;;;;;;4897776;29;20266;-72
2024/01/07 14:53:32;;;;;;;5.23;2.60;;;1.90;99.90;;;;;;4897991;29;20650;-71
2024/01/07 14:55:59;;;;;;;5.80;2.80;;;1.90;99.90;;;;;;4898162;29;20713;-70
2024/01/07 14:58:26;;;;;;;6.40;3.03;;;1.90;99.90;;;;;;4897633;29;20740;-70
2024/01/07 15:00:54;;;;;;;4.33;2.60;;;2.10;99.90;;;;;;4897678;29;20210;-71
2024/01/07 15:03:22;;;;;;;6.33;2.37;;;2.10;99.90;;;;;;4897671;29;20339;-70
2024/01/07 15:05:50;;;;;;;9.67;2.80;;;2.30;99.90;;;;;;4898200;29;20249;-70
2024/01/07 15:08:17;;;;;;;4.77;2.63;;;2.40;99.90;;;;;;4897733;29;20239;-71
2024/01/07 15:10:44;;;;;;;11.90;4.07;;;2.40;99.90;;;;;;4898143;29;20705;-69
2024/01/07 15:13:11;;;;;;;5.40;2.20;;;2.20;99.90;;;;;;4897741;29;20229;-71
2024/01/07 15:15:39;;;;;;;6.20;2.33;;;2.10;99.90;;;;;;4897885;29;20238;-70
2024/01/07 15:18:06;;;;;;;8.67;2.87;;;2.00;99.90;;;;;;4901353;29;20238;-70
2024/01/07 15:20:36;;;;;;;5.20;2.47;;;1.90;99.90;;;;;;4901263;29;20234;-73
2024/01/07 15:23:03;;;;;;;6.80;3.00;;;2.00;99.90;;;;;;4901194;29;20278;-70
2024/01/07 15:25:32;;;;;;;4.93;2.93;;;2.10;99.90;;;;;;4901196;29;20210;-70
2024/01/07 15:27:59;;;;;;;6.80;2.90;;;1.90;99.90;;;;;;4901231;29;20252;-70
2024/01/07 15:30:27;;;;;;;7.57;2.73;;;1.90;99.90;;;;;;4901269;29;20215;-70
2024/01/07 15:32:55;;;;;;;5.43;2.13;;;2.10;99.90;;;;;;4901253;29;20214;-71
2024/01/07 15:35:22;;;;;;;5.27;2.83;;;2.00;99.90;;;;;;4901141;29;20234;-71
2024/01/07 15:37:50;;;;;;;6.90;2.73;;;1.80;99.90;;;;;;4901286;29;20230;-70
2024/01/07 15:40:17;;;;;;;6.50;2.67;;;1.80;99.90;;;;;;4901138;29;20546;-70
2024/01/07 15:42:45;;;;;;;6.20;2.50;;;1.80;99.90;;;;;;4900989;29;20242;-72
2024/01/07 15:45:12;;;;;;;4.17;2.47;;;1.80;99.90;;;;;;4901325;29;20685;-73
2024/01/07 15:47:39;;;;;;;3.87;1.80;;;1.80;99.90;;;;;;4900999;29;20234;-69
2024/01/07 15:50:07;;;;;;;4.70;2.27;;;1.70;99.90;;;;;;4901101;29;20250;-70
2024/01/07 15:52:34;;;;;;;5.10;2.70;;;1.70;99.90;;;;;;4901669;29;20281;-73
2024/01/07 15:55:02;;;;;;;6.00;2.90;;;1.80;99.90;;;;;;4900682;29;20654;-72
2024/01/07 15:57:29;;;;;;;4.43;2.10;;;1.70;99.90;;;;;;4900721;29;20705;-71
2024/01/07 15:59:58;;;;;;;3.23;2.07;;;1.40;99.90;;;;;;4900647;29;20252;-69
2024/01/07 16:02:27;;;;;;;4.23;2.30;;;1.30;99.90;;;;;;4900135;29;20218;-71
2024/01/07 16:04:54;;;;;;;5.00;2.80;;;1.50;99.90;;;;;;4900964;29;20278;-73
2024/01/07 16:07:21;;;;;;;3.80;2.20;;;1.70;99.90;;;;;;4900145;29;20234;-73
2024/01/07 16:09:48;;;;;;;4.20;1.93;;;1.50;99.90;;;;;;4900196;29;20242;-69
2024/01/07 16:12:16;;;;;;;5.40;2.40;;;1.50;99.90;;;;;;4900247;29;20558;-70
2024/01/07 16:14:43;;;;;;;5.27;2.30;;;1.30;99.90;;;;;;4899961;29;20303;-70
2024/01/07 16:17:11;;;;;;;3.07;1.80;;;1.30;99.90;;;;;;4900171;29;20241;-71
2024/01/07 16:19:38;;;;;;;3.33;2.20;;;1.40;99.90;;;;;;4907462;29;20218;-72
2024/01/07 16:22:10;;;;;;;3.40;1.77;;;1.40;99.90;;;;;;4907179;29;20223;-70
2024/01/07 16:24:38;;;;;;;4.70;1.90;;;1.20;99.90;;;;;;4901810;29;20650;-70
2024/01/07 16:27:08;;;;;;;2.70;1.60;;;1.10;99.90;;;;;;4902612;29;20269;-73
2024/01/07 16:29:37;;;;;;;2.43;1.50;;;1.10;99.90;;;;;;4900805;29;20297;-70
2024/01/07 16:32:05;;;;;;;3.63;2.03;;;1.10;99.90;;;;;;4901317;29;20362;-71
2024/01/07 16:34:33;;;;;;;1.33;0.90;;;1.30;99.90;;;;;;4899413;29;20599;-73
2024/01/07 16:37:00;;;;;;;3.60;1.37;;;1.30;99.90;;;;;;4901428;29;22353;-72
2024/01/07 16:39:28;;;;;;;2.63;1.57;;;1.40;99.90;;;;;;4899711;29;20278;-69
2024/01/07 16:41:57;;;;;;;2.13;1.00;;;1.40;99.90;;;;;;4899317;29;20234;-69
2024/01/07 16:44:24;;;;;;;3.33;1.30;;;1.30;99.90;;;;;;4906365;29;20217;-71
2024/01/07 16:46:53;;;;;;;2.33;1.00;;;1.20;99.90;;;;;;4918427;29;20237;-72
2024/01/07 16:49:20;;;;;;;2.47;1.53;;;1.20;99.90;;;;;;4917514;29;20557;-73
2024/01/07 16:51:48;;;;;;;1.67;0.90;;;1.00;99.90;;;;;;4917816;29;20259;-74
2024/01/07 16:54:15;;;;;;;3.13;1.00;;;1.20;99.90;;;;;;4904239;29;20242;-73
2024/01/07 16:56:42;;;;;;;2.03;1.20;;;1.30;99.90;;;;;;4917675;29;20214;-73
2024/01/07 16:59:10;;;;;;;1.50;1.07;;;1.40;99.90;;;;;;4917421;29;20582;-73
2024/01/07 17:01:37;;;;;;;1.67;0.90;;;1.40;99.90;;;;;;4917884;29;20519;-72
2024/01/07 17:04:06;;;;;;;1.60;1.00;;;1.40;99.90;;;;;;4912427;29;20293;-72
2024/01/07 17:06:33;;;;;;;2.20;1.27;;;1.10;99.90;;;;;;4898577;29;20218;-74
2024/01/07 17:09:00;;;;;;;1.60;1.03;;;1.10;99.90;;;;;;4898609;29;20322;-73
2024/01/07 17:11:27;;;;;;;3.00;1.00;;;1.20;99.90;;;;;;4898941;29;20241;-73
2024/01/07 17:13:54;;;;;;;2.10;1.17;;;1.10;99.90;;;;;;4898730;29;20210;-74
2024/01/07 17:16:24;;;;;;;2.07;1.03;;;1.00;99.90;;;;;;4898613;29;20265;-74
2024/01/07 17:18:51;;;;;;;2.23;1.60;;;1.00;99.90;;;;;;4898764;29;20234;-73
2024/01/07 17:21:21;;;;;;;2.37;1.40;;;1.20;99.90;;;;;;4899597;29;20269;-74
2024/01/07 17:23:51;;;;;;;1.20;0.80;;;1.00;99.90;;;;;;4898627;29;20210;-74
2024/01/07 17:26:18;;;;;;;2.77;1.37;;;1.00;99.90;;;;;;4898750;29;20218;-73
2024/01/07 17:28:46;;;;;;;3.57;2.00;;;0.90;99.90;;;;;;4898530;29;20223;-73
2024/01/07 17:31:13;;;;;;;2.07;1.03;;;0.90;99.90;;;;;;4911464;29;20238;-74
2024/01/07 17:33:41;;;;;;;2.37;1.07;;;0.80;99.90;;;;;;4898507;29;20217;-74
2024/01/07 17:36:08;;;;;;;1.23;0.80;;;0.80;99.90;;;;;;4898581;29;20241;-74
2024/01/07 17:38:46;;;;;;;1.67;1.00;;;0.70;99.90;;;;;;4898643;29;20654;-74
2024/01/07 17:41:13;;;;;;;2.13;1.93;;;0.60;99.90;;;;;;4899085;29;20207;-74
2024/01/07 17:43:40;;;;;;;2.80;1.20;;;0.50;99.90;;;;;;4898577;29;20289;-73
2024/01/07 17:46:09;;;;;;;1.77;1.10;;;0.50;99.90;;;;;;4915028;29;20244;-76
2024/01/07 17:48:38;;;;;;;2.40;1.30;;;0.50;99.90;;;;;;4916717;29;20281;-75
2024/01/07 17:51:08;;;;;;;3.63;1.10;;;0.50;99.90;;;;;;4917071;29;20209;-74
2024/01/07 17:53:40;;;;;;;2.37;1.10;;;0.50;99.90;;;;;;4915490;29;20254;-74
2024/01/07 17:56:18;;;;;;;1.93;1.10;;;0.50;99.90;;;;;;4897922;29;20234;-72
2024/01/07 17:58:45;;;;;;;1.00;0.60;;;0.50;99.90;;;;;;4898296;29;20261;-72
2024/01/07 18:01:13;;;;;;;3.00;0.77;;;0.60;99.90;;;;;;4897260;29;20535;-72
2024/01/07 18:03:43;;;;;;;1.93;0.87;;;0.70;99.90;;;;;;4897846;29;20603;-72
2024/01/07 18:06:22;;;;;;;2.13;1.10;;;0.50;99.90;;;;;;4897845;29;20210;-73
2024/01/07 18:08:53;;;;;;;2.47;1.33;;;0.50;99.90;;;;;;4897263;29;20250;-75
2024/01/07 18:11:25;;;;;;;0.90;0.73;;;0.50;99.90;;;;;;4898020;29;20294;-73
2024/01/07 18:14:09;;;;;;;3.27;1.20;;;0.50;99.90;;;;;;4897182;29;20297;-73
2024/01/07 18:16:41;;;;;;;3.80;1.37;;;0.50;99.90;;;;;;4898104;29;20605;-75
2024/01/07 18:22:09;;;;;;;0.70;0.67;;;0.50;99.90;;;;;;4894124;29;20226;-73
2024/01/07 18:24:43;;;;;;;1.37;0.80;;;0.50;99.90;;;;;;4897776;29;20210;-73
2024/01/07 18:27:17;;;;;;;1.50;1.10;;;0.40;99.90;;;;;;4897496;29;20301;-72
2024/01/07 18:29:44;;;;;;;1.43;0.70;;;0.40;99.90;;;;;;4894389;29;20211;-73
2024/01/07 18:32:12;;;;;;;1.33;0.87;;;0.50;99.90;;;;;;4892128;29;20221;-73
2024/01/07 18:34:40;;;;;;;0.83;0.83;;;0.40;99.90;;;;;;4889796;29;20242;-73
2024/01/07 18:37:07;;;;;;;0.97;0.47;;;0.30;99.90;;;;;;4895746;29;20325;-73
2024/01/07 18:39:36;;;;;;;1.03;0.77;;;0.30;99.90;;;;;;4896701;29;20210;-73
2024/01/07 18:42:12;;;;;;;1.00;0.60;;;0.20;99.90;;;;;;4897150;29;20302;-73
2024/01/07 18:44:41;;;;;;;2.70;1.00;;;0.20;99.90;;;;;;4896848;29;20281;-74
2024/01/07 18:47:14;;;;;;;1.63;0.80;;;0.20;99.90;;;;;;4896786;29;20226;-73
2024/01/07 18:49:42;;;;;;;2.80;1.27;;;0.20;99.90;;;;;;4896476;29;20210;-72
2024/01/07 18:52:12;;;;;;;2.40;1.10;;;0.20;99.90;;;;;;4886639;29;20212;-73
2024/01/07 18:54:41;;;;;;;1.47;0.90;;;0.20;99.90;;;;;;4900274;29;20301;-74
2024/01/07 18:57:09;;;;;;;1.97;1.37;;;0.30;99.90;;;;;;4901004;29;20741;-73
2024/01/07 18:59:43;;;;;;;1.90;0.80;;;0.30;99.90;;;;;;4901470;29;20246;-74
2024/01/07 19:02:20;;;;;;;2.77;1.00;;;0.20;99.90;;;;;;4894697;29;20214;-73
2024/01/07 19:04:52;;;;;;;1.00;0.80;;;0.10;99.90;;;;;;4900907;29;20570;-72
2024/01/07 19:07:20;;;;;;;1.57;0.70;;;0.20;99.90;;;;;;4900742;29;20232;-74
2024/01/07 19:09:57;;;;;;;1.60;0.97;;;0.10;99.90;;;;;;4901096;29;20210;-73
2024/01/07 19:12:27;;;;;;;2.23;1.00;;;0.10;99.90;;;;;;4900452;29;20293;-73
2024/01/07 19:14:56;;;;;;;0.87;0.57;;;0.10;99.90;;;;;;4900821;29;20207;-73
2024/01/07 19:17:23;;;;;;;1.90;0.97;;;0.00;99.90;;;;;;4900854;29;20223;-74
2024/01/07 19:20:07;;;;;;;1.03;0.70;;;0.10;99.90;;;;;;4900892;29;20211;-73
2024/01/07 19:22:40;;;;;;;1.47;0.87;;;0.30;99.90;;;;;;4899607;29;20232;-73
2024/01/07 19:25:10;;;;;;;3.00;1.20;;;0.40;99.90;;;;;;4901017;29;20226;-72
2024/01/07 19:27:49;;;;;;;2.73;1.20;;;0.50;99.90;;;;;;4900570;29;20268;-73
2024/01/07 19:30:22;;;;;;;2.20;1.00;;;0.40;99.90;;;;;;4900442;29;20210;-73
2024/01/07 19:33:10;;;;;;;;;;;;;;;;;;;;;
2024/01/07 19:35:40;;;;;;;1.67;1.00;;;0.30;99.90;;;;;;4898272;29;20237;-74
2024/01/07 19:38:08;;;;;;;3.37;1.00;;;0.30;99.90;;;;;;4895707;29;20230;-73
2024/01/07 19:40:38;;;;;;;2.73;1.00;;;0.30;99.90;;;;;;4900459;29;20656;-73
2024/01/07 19:43:24;;;;;;;2.13;0.90;;;0.40;99.90;;;;;;4900057;29;20674;-73
2024/01/07 19:46:03;;;;;;;3.10;1.47;;;0.30;99.90;;;;;;4900692;29;20214;-72
2024/01/07 19:48:31;;;;;;;1.87;0.80;;;0.30;99.90;;;;;;4900342;29;20226;-73
2024/01/07 19:50:59;;;;;;;2.23;1.00;;;0.20;99.90;;;;;;4900583;29;20703;-73
2024/01/07 19:53:29;;;;;;;1.53;0.87;;;0.10;99.90;;;;;;4900531;29;20565;-72
2024/01/07 19:56:01;;;;;;;1.90;0.83;;;0.30;99.90;;;;;;4900249;29;20277;-73
2024/01/07 19:58:28;;;;;;;0.90;0.60;;;0.30;99.90;;;;;;4900200;29;20234;-73
2024/01/07 20:00:57;;;;;;;3.73;0.90;;;0.30;99.90;;;;;;4900308;29;20207;-74
2024/01/07 20:03:25;;;;;;;2.43;1.00;;;0.10;99.90;;;;;;4901237;29;20650;-74
2024/01/07 20:05:53;;;;;;;2.33;0.90;;;0.00;99.90;;;;;;4900330;29;20207;-74
2024/01/07 20:08:21;;;;;;;3.17;0.90;;;-0.10;99.90;;;;;;4898560;29;20249;-74
2024/01/07 20:10:49;;;;;;;2.63;0.83;;;-0.20;99.90;;;;;;4893082;29;20211;-75
2024/01/07 20:13:22;;;;;;;2.03;0.90;;;-0.10;99.90;;;;;;4900036;29;20210;-74
2024/01/07 20:15:50;;;;;;;1.37;0.70;;;-0.10;99.90;;;;;;4899903;29;20286;-75
2024/01/07 20:18:19;;;;;;;1.10;0.80;;;-0.10;99.90;;;;;;4899345;29;20317;-75
2024/01/07 20:20:46;;;;;;;1.57;0.90;;;0.00;99.90;;;;;;4900204;29;20219;-75
2024/01/07 20:23:14;;;;;;;2.03;0.70;;;-0.10;99.90;;;;;;4899504;29;20305;-74
2024/01/07 20:25:42;;;;;;;1.53;0.90;;;0.10;99.90;;;;;;4899576;29;20730;-75
2024/01/07 20:28:09;;;;;;;0.90;0.60;;;0.10;99.90;;;;;;4899003;29;20306;-75
2024/01/07 20:30:37;;;;;;;1.93;0.97;;;-0.20;99.90;;;;;;4899527;29;20567;-75
2024/01/07 20:33:09;;;;;;;6.63;0.77;;;-0.20;99.90;;;;;;4899070;29;20618;-75
2024/01/07 20:35:39;;;;;;;1.20;0.70;;;-0.20;99.90;;;;;;4899719;29;20240;-75
2024/01/07 20:38:08;;;;;;;0.97;0.60;;;-0.10;99.90;;;;;;4898974;29;20230;-74
2024/01/07 20:40:37;;;;;;;2.33;1.23;;;-0.10;99.90;;;;;;4899362;29;20214;-74
2024/01/07 20:43:09;;;;;;;1.27;0.90;;;-0.20;99.90;;;;;;4892728;29;20293;-75
2024/01/07 20:45:37;;;;;;;2.20;0.97;;;-0.30;99.90;;;;;;4893748;29;20603;-75
2024/01/07 20:48:06;;;;;;;1.43;0.73;;;-0.20;99.90;;;;;;4898860;29;20238;-74
2024/01/07 20:50:33;;;;;;;1.73;0.77;;;-0.20;99.90;;;;;;4886552;29;20599;-75
2024/01/07 20:53:02;;;;;;;1.50;0.80;;;-0.10;99.90;;;;;;4898565;29;20210;-74
2024/01/07 20:55:29;;;;;;;0.70;0.67;;;-0.10;99.90;;;;;;4898869;29;20619;-75
2024/01/07 20:57:57;;;;;;;4.23;0.80;;;0.00;99.90;;;;;;4898847;29;20728;-75
2024/01/07 21:00:24;;;;;;;4.13;1.37;;;0.00;99.90;;;;;;4898349;29;20292;-75
2024/01/07 21:02:52;;;;;;;2.63;1.23;;;0.00;99.90;;;;;;4898760;29;20214;-74
2024/01/07 21:05:19;;;;;;;1.50;1.00;;;-0.10;99.90;;;;;;4898757;29;20297;-75
2024/01/07 21:07:47;;;;;;;1.70;0.87;;;-0.10;99.90;;;;;;4898470;29;20266;-75
2024/01/07 21:10:16;;;;;;;1.03;0.67;;;-0.30;99.90;;;;;;4898361;29;20213;-74
2024/01/07 21:12:45;;;;;;;2.73;1.23;;;-0.40;99.90;;;;;;4898565;29;20221;-74
2024/01/07 21:15:12;;;;;;;2.87;1.37;;;-0.20;99.90;;;;;;4907363;29;20191;-73
2024/01/07 21:17:39;;;;;;;1.87;1.03;;;-0.10;99.90;;;;;;4912316;23;20231;-74
2024/01/07 21:20:09;;;;;;;1.20;1.03;;;-0.10;99.90;;;;;;4878913;29;20213;-75
2024/01/07 21:22:36;;;;;;;3.70;0.90;;;-0.30;99.90;;;;;;4879322;29;20216;-75
2024/01/07 21:25:04;;;;;;;2.33;0.73;;;-0.40;99.90;;;;;;4878887;29;20259;-75
2024/01/07 21:27:32;;;;;;;1.67;0.93;;;-0.30;99.90;;;;;;4879288;29;20255;-75
2024/01/07 21:29:59;;;;;;;3.53;1.00;;;-0.20;99.90;;;;;;4854978;29;20268;-76
2024/01/07 21:32:28;;;;;;;2.27;1.73;;;-0.20;99.90;;;;;;4865904;29;20208;-75
2024/01/07 21:34:54;;;;;;;7.20;0.80;;;-0.10;99.90;;;;;;4864923;29;20766;-76
2024/01/07 21:37:21;;;;;;;6.97;1.13;;;-0.20;99.90;;;;;;4868865;29;20266;-74
2024/01/07 21:39:48;;;;;;;1.97;0.80;;;-0.30;99.90;;;;;;4860039;29;20711;-75
2024/01/07 21:42:16;;;;;;;3.07;1.17;;;-0.30;99.90;;;;;;4870354;29;20212;-76
2024/01/07 21:44:45;;;;;;;1.77;1.10;;;-0.30;99.90;;;;;;4878788;29;20213;-75
2024/01/07 21:47:12;;;;;;;3.23;1.30;;;-0.30;99.90;;;;;;4879332;29;20235;-76
2024/01/07 21:49:46;;;;;;;4.30;1.03;;;-0.20;99.90;;;;;;4861514;29;20236;-76
2024/01/07 21:52:13;;;;;;;4.23;1.30;;;-0.30;99.90;;;;;;4858303;29;20219;-74
2024/01/07 21:54:40;;;;;;;2.17;0.90;;;-0.50;99.90;;;;;;4861334;29;20243;-76
2024/01/07 21:57:07;;;;;;;2.73;1.20;;;-0.70;99.90;;;;;;4860799;29;20286;-72
2024/01/07 21:59:34;;;;;;;3.33;1.27;;;-0.40;99.90;;;;;;4860984;29;20252;-75
2024/01/07 22:02:02;;;;;;;2.57;1.10;;;-0.20;99.90;;;;;;4860657;29;20272;-72
2024/01/07 22:04:29;;;;;;;2.83;1.00;;;-0.40;99.90;;;;;;4849308;29;20242;-75
2024/01/07 22:06:56;;;;;;;3.30;1.53;;;-0.40;99.90;;;;;;4860933;29;20663;-75
2024/01/07 22:09:23;;;;;;;3.40;1.40;;;-0.50;99.90;;;;;;4860564;29;20208;-76
2024/01/07 22:11:50;;;;;;;3.00;1.27;;;-0.70;99.90;;;;;;4865939;29;20636;-75
2024/01/07 22:14:17;;;;;;;3.00;1.23;;;-0.80;99.90;;;;;;4865962;29;20239;-75
2024/01/07 22:16:44;;;;;;;2.57;1.20;;;-0.80;99.90;;;;;;4864655;29;20660;-75
2024/01/07 22:19:12;;;;;;;2.57;1.27;;;-0.80;99.90;;;;;;4860068;29;20216;-75
2024/01/07 22:21:39;;;;;;;1.23;0.60;;;-0.70;99.90;;;;;;4857333;29;20723;-77
